createdAt,value
2023-01-25T00:00:41.909Z,5.01
2023-01-25T00:01:41.890Z,5.17
2023-01-25T00:02:41.927Z,5.08
2023-01-25T00:03:41.860Z,4.93
2023-01-25T00:04:41.843Z,4.86
2023-01-25T00:05:41.819Z,4.87
2023-01-25T00:06:41.804Z,4.80
2023-01-25T00:07:41.785Z,4.83
2023-01-25T00:08:41.770Z,4.86
2023-01-25T00:09:41.771Z,4.90
2023-01-25T00:10:41.737Z,5.05
2023-01-25T00:11:41.712Z,4.91
2023-01-25T00:12:41.700Z,5.06
2023-01-25T00:13:41.721Z,5.05
2023-01-25T00:14:41.679Z,5.06
2023-01-25T00:15:41.656Z,5.06
2023-01-25T00:16:41.768Z,5.19
2023-01-25T00:17:41.617Z,5.24
2023-01-25T00:18:41.597Z,5.19
2023-01-25T00:19:41.577Z,5.20
2023-01-25T00:20:41.561Z,5.22
2023-01-25T00:21:41.544Z,5.26
2023-01-25T00:22:41.527Z,5.26
2023-01-25T00:23:41.508Z,5.24
2023-01-25T00:24:41.511Z,5.29
2023-01-25T00:25:41.496Z,5.29
2023-01-25T00:26:41.481Z,5.29
2023-01-25T00:27:41.437Z,5.23
2023-01-25T00:28:41.429Z,5.09
2023-01-25T00:29:41.409Z,5.02
2023-01-25T00:30:41.388Z,5.05
2023-01-25T00:31:41.567Z,4.97
2023-01-25T00:32:41.473Z,4.91
2023-01-25T00:33:41.355Z,4.90
2023-01-25T00:34:41.319Z,4.90
2023-01-25T00:35:41.300Z,4.91
2023-01-25T00:36:41.291Z,5.06
2023-01-25T00:37:41.265Z,5.04
2023-01-25T00:38:41.249Z,5.05
2023-01-25T00:39:41.228Z,5.09
2023-01-25T00:40:41.223Z,5.17
2023-01-25T00:41:41.219Z,5.20
2023-01-25T00:42:41.181Z,5.29
2023-01-25T00:43:41.160Z,5.24
2023-01-25T00:44:41.146Z,5.24
2023-01-25T00:45:41.181Z,5.32
2023-01-25T00:46:41.122Z,5.37
2023-01-25T00:47:41.093Z,5.44
2023-01-25T00:48:41.082Z,5.33
2023-01-25T00:49:41.064Z,5.24
2023-01-25T00:50:41.045Z,5.15
2023-01-25T00:51:41.020Z,5.14
2023-01-25T00:52:41.017Z,5.14
2023-01-25T00:53:40.984Z,5.15
2023-01-25T00:54:40.969Z,5.04
2023-01-25T00:55:40.949Z,5.04
2023-01-25T00:56:40.936Z,5.04
2023-01-25T00:57:40.965Z,5.22
2023-01-25T00:58:40.904Z,5.12
2023-01-25T00:59:40.881Z,5.20
2023-01-25T01:00:40.871Z,5.23
2023-01-25T01:01:40.854Z,5.29
2023-01-25T01:02:40.887Z,5.17
2023-01-25T01:03:40.822Z,5.22
2023-01-25T01:04:40.936Z,5.27
2023-01-25T01:05:40.777Z,5.32
2023-01-25T01:06:40.771Z,5.41
2023-01-25T01:07:40.741Z,5.38
2023-01-25T01:08:40.729Z,5.32
2023-01-25T01:09:40.706Z,5.45
2023-01-25T01:10:40.698Z,5.37
2023-01-25T01:11:40.686Z,5.49
2023-01-25T01:12:40.659Z,5.44
2023-01-25T01:13:40.659Z,5.52
2023-01-25T01:14:40.628Z,5.44
2023-01-25T01:15:40.606Z,5.45
2023-01-25T01:16:40.639Z,5.44
2023-01-25T01:17:40.586Z,5.41
2023-01-25T01:18:40.557Z,5.40
2023-01-25T01:19:40.534Z,5.23
2023-01-25T01:20:40.524Z,5.19
2023-01-25T01:21:40.502Z,5.23
2023-01-25T01:22:40.489Z,5.35
2023-01-25T01:23:40.471Z,5.45
2023-01-25T01:24:40.450Z,5.56
2023-01-25T01:25:40.435Z,5.60
2023-01-25T01:26:40.415Z,5.56
2023-01-25T01:27:40.396Z,5.56
2023-01-25T01:28:40.380Z,5.65
2023-01-25T01:29:40.389Z,5.49
2023-01-25T01:30:40.362Z,5.48
2023-01-25T01:31:40.404Z,5.40
2023-01-25T01:32:40.470Z,5.44
2023-01-25T01:33:40.295Z,5.38
2023-01-25T01:34:40.290Z,5.41
2023-01-25T01:35:40.262Z,5.40
2023-01-25T01:36:40.243Z,5.29
2023-01-25T01:37:40.225Z,5.33
2023-01-25T01:38:40.209Z,5.35
2023-01-25T01:39:40.200Z,5.38
2023-01-25T01:40:40.172Z,5.33
2023-01-25T01:41:40.159Z,5.51
2023-01-25T01:42:40.136Z,5.51
2023-01-25T01:43:40.122Z,5.62
2023-01-25T01:44:40.104Z,5.41
2023-01-25T01:45:40.170Z,5.24
2023-01-25T01:46:40.079Z,5.37
2023-01-25T01:47:40.060Z,5.23
2023-01-25T01:48:40.068Z,5.17
2023-01-25T01:49:40.031Z,5.06
2023-01-25T01:50:39.998Z,5.05
2023-01-25T01:51:40.001Z,5.09
2023-01-25T01:52:39.971Z,5.02
2023-01-25T01:53:39.950Z,5.01
2023-01-25T01:54:39.929Z,4.99
2023-01-25T01:55:39.917Z,4.96
2023-01-25T01:56:39.931Z,5.09
2023-01-25T01:57:39.881Z,5.01
2023-01-25T01:58:39.860Z,4.91
2023-01-25T01:59:39.847Z,5.02
2023-01-25T02:00:39.839Z,5.06
2023-01-25T02:01:39.891Z,5.09
2023-01-25T02:02:39.892Z,5.11
2023-01-25T02:03:39.777Z,5.05
2023-01-25T02:04:39.756Z,5.15
2023-01-25T02:05:39.742Z,5.17
2023-01-25T02:06:39.720Z,5.26
2023-01-25T02:07:39.707Z,5.32
2023-01-25T02:08:39.685Z,5.29
2023-01-25T02:09:39.674Z,5.33
2023-01-25T02:10:39.656Z,5.44
2023-01-25T02:11:39.638Z,5.51
2023-01-25T02:12:39.636Z,5.40
2023-01-25T02:13:39.601Z,5.44
2023-01-25T02:14:39.584Z,5.47
2023-01-25T02:15:39.631Z,5.32
2023-01-25T02:16:39.548Z,5.40
2023-01-25T02:17:39.551Z,5.38
2023-01-25T02:18:39.516Z,5.45
2023-01-25T02:19:39.531Z,5.35
2023-01-25T02:20:39.500Z,5.35
2023-01-25T02:21:39.479Z,5.23
2023-01-25T02:22:39.451Z,5.20
2023-01-25T02:23:39.429Z,5.19
2023-01-25T02:24:39.408Z,5.17
2023-01-25T02:25:39.395Z,5.17
2023-01-25T02:26:39.374Z,5.05
2023-01-25T02:27:39.359Z,5.05
2023-01-25T02:28:39.340Z,4.94
2023-01-25T02:29:39.326Z,4.93
2023-01-25T02:30:39.305Z,4.90
2023-01-25T02:31:39.418Z,4.94
2023-01-25T02:32:39.270Z,4.96
2023-01-25T02:33:39.278Z,5.04
2023-01-25T02:34:39.233Z,5.02
2023-01-25T02:35:39.225Z,5.01
2023-01-25T02:36:39.199Z,4.93
2023-01-25T02:37:39.195Z,4.97
2023-01-25T02:38:39.179Z,4.87
2023-01-25T02:39:39.150Z,4.88
2023-01-25T02:40:39.129Z,4.88
2023-01-25T02:41:39.113Z,5.05
2023-01-25T02:42:39.095Z,5.04
2023-01-25T02:43:39.084Z,5.01
2023-01-25T02:44:39.061Z,4.75
2023-01-25T02:45:39.061Z,4.91
2023-01-25T02:46:39.142Z,4.97
2023-01-25T02:47:39.011Z,4.87
2023-01-25T02:48:38.988Z,4.77
2023-01-25T02:49:38.996Z,4.74
2023-01-25T02:50:38.952Z,4.87
2023-01-25T02:51:38.939Z,4.91
2023-01-25T02:52:38.919Z,5.04
2023-01-25T02:53:38.907Z,5.06
2023-01-25T02:54:38.881Z,5.08
2023-01-25T02:55:38.869Z,5.02
2023-01-25T02:56:38.849Z,5.01
2023-01-25T02:57:38.838Z,4.88
2023-01-25T02:58:38.812Z,4.99
2023-01-25T02:59:38.799Z,5.08
2023-01-25T03:00:38.776Z,5.02
2023-01-25T03:01:38.938Z,5.06
2023-01-25T03:02:38.833Z,5.17
2023-01-25T03:03:38.727Z,5.22
2023-01-25T03:04:38.706Z,5.12
2023-01-25T03:05:38.712Z,5.19
2023-01-25T03:06:38.675Z,5.20
2023-01-25T03:07:38.657Z,5.20
2023-01-25T03:08:38.635Z,5.24
2023-01-25T03:09:38.628Z,5.17
2023-01-25T03:10:38.601Z,5.14
2023-01-25T03:11:38.587Z,5.05
2023-01-25T03:12:38.572Z,5.06
2023-01-25T03:13:38.563Z,5.22
2023-01-25T03:14:38.532Z,5.19
2023-01-25T03:15:38.524Z,5.09
2023-01-25T03:16:38.573Z,5.02
2023-01-25T03:17:38.484Z,5.12
2023-01-25T03:18:38.458Z,4.96
2023-01-25T03:19:38.445Z,5.12
2023-01-25T03:20:38.426Z,5.08
2023-01-25T03:21:38.437Z,5.04
2023-01-25T03:22:38.416Z,5.06
2023-01-25T03:23:38.376Z,5.08
2023-01-25T03:24:38.354Z,5.08
2023-01-25T03:25:38.342Z,5.06
2023-01-25T03:26:38.324Z,5.04
2023-01-25T03:27:38.308Z,4.96
2023-01-25T03:28:38.286Z,4.84
2023-01-25T03:29:38.287Z,4.86
2023-01-25T03:30:38.254Z,4.83
2023-01-25T03:31:38.344Z,4.93
2023-01-25T03:32:38.213Z,4.77
2023-01-25T03:33:38.201Z,4.84
2023-01-25T03:34:38.178Z,4.83
2023-01-25T03:35:38.166Z,4.79
2023-01-25T03:36:38.150Z,4.68
2023-01-25T03:37:38.154Z,4.57
2023-01-25T03:38:38.109Z,4.54
2023-01-25T03:39:38.094Z,4.61
2023-01-25T03:40:38.075Z,4.69
2023-01-25T03:41:38.063Z,4.64
2023-01-25T03:42:38.049Z,4.64
2023-01-25T03:43:38.025Z,4.68
2023-01-25T03:44:38.003Z,4.77
2023-01-25T03:45:37.989Z,4.74
2023-01-25T03:46:37.977Z,4.83
2023-01-25T03:47:37.954Z,4.91
2023-01-25T03:48:37.936Z,4.93
2023-01-25T03:49:37.925Z,5.01
2023-01-25T03:50:37.903Z,5.08
2023-01-25T03:51:37.883Z,4.94
2023-01-25T03:52:37.863Z,5.02
2023-01-25T03:53:37.878Z,5.04
2023-01-25T03:54:37.828Z,5.11
2023-01-25T03:55:37.813Z,5.19
2023-01-25T03:56:37.796Z,5.08
2023-01-25T03:57:37.778Z,5.05
2023-01-25T03:58:37.763Z,5.05
2023-01-25T03:59:37.746Z,5.11
2023-01-25T04:00:37.770Z,5.24
2023-01-25T04:01:37.712Z,5.30
2023-01-25T04:02:37.723Z,5.33
2023-01-25T04:03:37.674Z,5.33
2023-01-25T04:04:37.654Z,5.38
2023-01-25T04:05:37.637Z,5.22
2023-01-25T04:06:37.617Z,5.17
2023-01-25T04:07:37.653Z,5.24
2023-01-25T04:08:37.582Z,5.15
2023-01-25T04:09:37.593Z,5.22
2023-01-25T04:10:37.548Z,5.32
2023-01-25T04:11:37.542Z,5.23
2023-01-25T04:12:37.513Z,5.17
2023-01-25T04:13:37.502Z,5.05
2023-01-25T04:14:44.247Z,5.01
2023-01-25T04:15:37.462Z,5.05
2023-01-25T04:16:37.542Z,5.05
2023-01-25T04:17:37.432Z,4.96
2023-01-25T04:18:37.415Z,5.02
2023-01-25T04:19:37.400Z,4.96
2023-01-25T04:20:37.384Z,5.01
2023-01-25T04:21:37.356Z,5.05
2023-01-25T04:22:37.336Z,5.04
2023-01-25T04:23:37.324Z,4.97
2023-01-25T04:24:37.305Z,4.83
2023-01-25T04:25:37.306Z,4.96
2023-01-25T04:26:37.266Z,4.96
2023-01-25T04:27:37.256Z,5.01
2023-01-25T04:28:37.233Z,4.93
2023-01-25T04:29:41.431Z,4.91
2023-01-25T04:30:37.197Z,4.80
2023-01-25T04:31:37.325Z,4.87
2023-01-25T04:32:37.350Z,4.83
2023-01-25T04:33:37.152Z,4.90
2023-01-25T04:34:37.131Z,5.02
2023-01-25T04:35:37.119Z,5.08
2023-01-25T04:36:37.099Z,5.05
2023-01-25T04:37:37.079Z,4.96
2023-01-25T04:38:37.058Z,4.99
2023-01-25T04:39:37.048Z,4.93
2023-01-25T04:40:37.112Z,4.94
2023-01-25T04:41:37.033Z,4.83
2023-01-25T04:42:36.987Z,4.77
2023-01-25T04:43:36.979Z,4.74
2023-01-25T04:44:36.956Z,4.68
2023-01-25T04:45:37.005Z,4.68
2023-01-25T04:46:36.918Z,4.77
2023-01-25T04:47:36.905Z,4.80
2023-01-25T04:48:36.888Z,4.88
2023-01-25T04:49:36.868Z,5.08
2023-01-25T04:50:36.848Z,5.12
2023-01-25T04:51:36.833Z,5.05
2023-01-25T04:52:36.813Z,5.04
2023-01-25T04:53:36.806Z,5.09
2023-01-25T04:54:36.777Z,5.09
2023-01-25T04:55:36.764Z,5.06
2023-01-25T04:56:36.741Z,5.04
2023-01-25T04:57:36.750Z,5.01
2023-01-25T04:58:36.731Z,5.01
2023-01-25T04:59:36.692Z,5.11
2023-01-25T05:00:36.680Z,5.24
2023-01-25T05:01:36.762Z,5.17
2023-01-25T05:02:36.775Z,5.20
2023-01-25T05:03:36.626Z,5.08
2023-01-25T05:04:36.601Z,4.96
2023-01-25T05:05:36.588Z,4.84
2023-01-25T05:06:36.565Z,4.84
2023-01-25T05:07:36.553Z,4.64
2023-01-25T05:08:36.545Z,4.79
2023-01-25T05:09:36.515Z,4.79
2023-01-25T05:10:36.499Z,4.80
2023-01-25T05:11:36.481Z,4.65
2023-01-25T05:12:36.460Z,4.79
2023-01-25T05:13:36.473Z,4.71
2023-01-25T05:14:36.424Z,4.75
2023-01-25T05:15:36.413Z,4.90
2023-01-25T05:16:36.450Z,4.96
2023-01-25T05:17:36.375Z,5.05
2023-01-25T05:18:47.957Z,5.02
2023-01-25T05:19:36.339Z,4.93
2023-01-25T05:20:36.338Z,4.94
2023-01-25T05:21:36.301Z,4.96
2023-01-25T05:22:36.310Z,4.93
2023-01-25T05:23:36.269Z,5.05
2023-01-25T05:24:36.246Z,4.94
2023-01-25T05:25:36.234Z,4.99
2023-01-25T05:26:36.212Z,5.01
2023-01-25T05:27:36.200Z,5.17
2023-01-25T05:28:36.176Z,5.12
2023-01-25T05:29:36.184Z,5.09
2023-01-25T05:30:36.163Z,5.14
2023-01-25T05:31:36.137Z,5.23
2023-01-25T05:32:36.106Z,5.17
2023-01-25T05:33:36.090Z,5.06
2023-01-25T05:34:36.071Z,5.14
2023-01-25T05:35:36.055Z,5.22
2023-01-25T05:36:36.035Z,5.20
2023-01-25T05:37:36.034Z,5.41
2023-01-25T05:38:35.998Z,5.38
2023-01-25T05:39:35.983Z,5.42
2023-01-25T05:40:35.963Z,5.40
2023-01-25T05:41:35.948Z,5.33
2023-01-25T05:42:35.927Z,5.37
2023-01-25T05:43:35.914Z,5.29
2023-01-25T05:44:35.898Z,5.24
2023-01-25T05:45:35.895Z,5.27
2023-01-25T05:46:35.857Z,5.29
2023-01-25T05:47:35.844Z,5.23
2023-01-25T05:48:35.826Z,5.33
2023-01-25T05:49:35.806Z,5.26
2023-01-25T05:50:35.789Z,5.22
2023-01-25T05:51:35.787Z,5.22
2023-01-25T05:52:35.794Z,5.24
2023-01-25T05:53:35.736Z,5.14
2023-01-25T05:54:35.724Z,5.08
2023-01-25T05:55:35.707Z,5.05
2023-01-25T05:56:35.688Z,5.04
2023-01-25T05:57:35.669Z,5.06
2023-01-25T05:58:35.649Z,5.05
2023-01-25T05:59:35.629Z,5.11
2023-01-25T06:00:35.816Z,5.09
2023-01-25T06:01:35.614Z,5.08
2023-01-25T06:02:35.734Z,4.96
2023-01-25T06:03:35.671Z,4.96
2023-01-25T06:04:35.543Z,4.96
2023-01-25T06:05:35.527Z,4.91
2023-01-25T06:06:35.507Z,4.97
2023-01-25T06:07:35.490Z,5.02
2023-01-25T06:08:35.473Z,4.91
2023-01-25T06:09:35.451Z,4.83
2023-01-25T06:10:35.441Z,4.72
2023-01-25T06:11:35.417Z,4.71
2023-01-25T06:12:35.408Z,4.68
2023-01-25T06:13:35.397Z,4.71
2023-01-25T06:14:35.367Z,4.87
2023-01-25T06:15:35.366Z,4.80
2023-01-25T06:16:35.332Z,4.68
2023-01-25T06:17:35.384Z,4.83
2023-01-25T06:18:35.296Z,4.75
2023-01-25T06:19:35.279Z,4.86
2023-01-25T06:20:35.262Z,4.84
2023-01-25T06:21:35.245Z,4.88
2023-01-25T06:22:35.225Z,4.93
2023-01-25T06:23:35.205Z,4.80
2023-01-25T06:24:35.191Z,4.79
2023-01-25T06:25:35.172Z,4.72
2023-01-25T06:26:35.162Z,4.69
2023-01-25T06:27:35.136Z,4.71
2023-01-25T06:28:35.122Z,4.61
2023-01-25T06:29:35.103Z,4.77
2023-01-25T06:30:35.088Z,4.80
2023-01-25T06:31:35.261Z,4.87
2023-01-25T06:32:35.057Z,4.83
2023-01-25T06:33:35.051Z,4.86
2023-01-25T06:34:35.015Z,4.69
2023-01-25T06:35:35.027Z,4.74
2023-01-25T06:36:34.980Z,4.68
2023-01-25T06:37:34.959Z,4.68
2023-01-25T06:38:34.943Z,4.80
2023-01-25T06:39:34.923Z,4.77
2023-01-25T06:40:34.913Z,4.88
2023-01-25T06:41:34.887Z,4.90
2023-01-25T06:42:34.871Z,4.88
2023-01-25T06:43:34.856Z,4.84
2023-01-25T06:44:34.840Z,4.86
2023-01-25T06:45:34.820Z,4.77
2023-01-25T06:46:34.891Z,4.80
2023-01-25T06:47:34.782Z,4.68
2023-01-25T06:48:34.772Z,4.71
2023-01-25T06:50:07.976Z,4.68
2023-01-25T06:50:34.727Z,4.72
2023-01-25T06:51:34.713Z,4.68
2023-01-25T06:52:34.693Z,4.62
2023-01-25T06:53:34.758Z,4.59
2023-01-25T06:54:34.660Z,4.56
2023-01-25T06:55:34.652Z,4.56
2023-01-25T06:56:34.637Z,4.57
2023-01-25T06:57:34.612Z,4.59
2023-01-25T06:58:34.587Z,4.61
2023-01-25T06:59:34.573Z,4.64
2023-01-25T07:00:34.553Z,4.56
2023-01-25T07:01:34.609Z,4.61
2023-01-25T07:02:34.597Z,4.68
2023-01-25T07:03:34.513Z,4.71
2023-01-25T07:04:34.485Z,4.72
2023-01-25T07:05:34.488Z,4.74
2023-01-25T07:06:34.445Z,4.80
2023-01-25T07:07:34.433Z,4.61
2023-01-25T07:08:34.420Z,4.75
2023-01-25T07:09:34.395Z,4.61
2023-01-25T07:10:34.379Z,4.67
2023-01-25T07:11:34.368Z,4.77
2023-01-25T07:12:34.341Z,4.72
2023-01-25T07:13:34.335Z,4.77
2023-01-25T07:14:34.320Z,4.72
2023-01-25T07:15:34.291Z,4.62
2023-01-25T07:16:34.275Z,4.71
2023-01-25T07:17:34.288Z,4.67
2023-01-25T07:18:34.236Z,4.65
2023-01-25T07:19:34.219Z,4.56
2023-01-25T07:20:34.202Z,4.59
2023-01-25T07:21:34.227Z,4.61
2023-01-25T07:22:34.162Z,4.69
2023-01-25T07:23:34.202Z,4.65
2023-01-25T07:24:34.127Z,4.69
2023-01-25T07:25:34.120Z,4.64
2023-01-25T07:26:34.128Z,4.56
2023-01-25T07:27:34.087Z,4.50
2023-01-25T07:28:34.065Z,4.56
2023-01-25T07:29:34.040Z,4.56
2023-01-25T07:30:34.021Z,4.54
2023-01-25T07:31:34.054Z,4.54
2023-01-25T07:32:33.986Z,4.47
2023-01-25T07:33:33.970Z,4.54
2023-01-25T07:34:33.952Z,4.47
2023-01-25T07:35:33.939Z,4.54
2023-01-25T07:36:33.915Z,4.57
2023-01-25T07:37:33.923Z,4.53
2023-01-25T07:38:33.882Z,4.53
2023-01-25T07:39:33.864Z,4.56
2023-01-25T07:40:33.843Z,4.54
2023-01-25T07:41:33.827Z,4.67
2023-01-25T07:42:33.807Z,4.62
2023-01-25T07:43:33.793Z,4.61
2023-01-25T07:44:33.778Z,4.59
2023-01-25T07:45:33.758Z,4.56
2023-01-25T07:46:33.734Z,4.67
2023-01-25T07:47:33.721Z,4.54
2023-01-25T07:48:33.700Z,4.43
2023-01-25T07:49:33.740Z,4.44
2023-01-25T07:50:33.666Z,4.51
2023-01-25T07:51:33.659Z,4.47
2023-01-25T07:52:33.646Z,4.44
2023-01-25T07:53:33.637Z,4.49
2023-01-25T07:54:33.644Z,4.36
2023-01-25T07:55:33.585Z,4.36
2023-01-25T07:56:33.563Z,4.43
2023-01-25T07:57:33.544Z,4.42
2023-01-25T07:58:33.527Z,4.42
2023-01-25T07:59:33.517Z,4.32
2023-01-25T08:00:33.490Z,4.36
2023-01-25T08:01:33.479Z,4.38
2023-01-25T08:02:33.459Z,4.25
2023-01-25T08:03:33.437Z,4.35
2023-01-25T08:04:33.422Z,4.31
2023-01-25T08:05:33.401Z,4.47
2023-01-25T08:06:33.381Z,4.36
2023-01-25T08:07:33.366Z,4.34
2023-01-25T08:08:33.345Z,4.36
2023-01-25T08:09:33.355Z,4.43
2023-01-25T08:10:33.309Z,4.36
2023-01-25T08:11:33.296Z,4.35
2023-01-25T08:12:33.272Z,4.46
2023-01-25T08:13:33.311Z,4.39
2023-01-25T08:14:33.241Z,4.44
2023-01-25T08:15:33.223Z,4.50
2023-01-25T08:16:33.200Z,4.59
2023-01-25T08:17:33.187Z,4.59
2023-01-25T08:18:35.769Z,4.49
2023-01-25T08:19:33.152Z,4.57
2023-01-25T08:20:33.140Z,4.64
2023-01-25T08:21:33.128Z,4.65
2023-01-25T08:22:33.095Z,4.61
2023-01-25T08:23:33.086Z,4.56
2023-01-25T08:24:33.096Z,4.56
2023-01-25T08:25:33.065Z,4.57
2023-01-25T08:26:33.024Z,4.44
2023-01-25T08:27:33.013Z,4.49
2023-01-25T08:28:32.991Z,4.51
2023-01-25T08:29:33.000Z,4.44
2023-01-25T08:30:32.954Z,4.51
2023-01-25T08:31:32.977Z,4.65
2023-01-25T08:32:32.920Z,4.71
2023-01-25T08:33:32.902Z,4.56
2023-01-25T08:34:32.881Z,4.57
2023-01-25T08:35:32.870Z,4.57
2023-01-25T08:36:32.857Z,4.71
2023-01-25T08:37:32.831Z,4.68
2023-01-25T08:38:32.828Z,4.69
2023-01-25T08:39:32.796Z,4.74
2023-01-25T08:40:34.211Z,4.86
2023-01-25T08:41:32.795Z,4.99
2023-01-25T08:42:32.742Z,5.14
2023-01-25T08:43:32.725Z,5.22
2023-01-25T08:44:32.706Z,5.15
2023-01-25T08:45:32.692Z,5.17
2023-01-25T08:46:32.669Z,5.06
2023-01-25T08:47:32.665Z,5.06
2023-01-25T08:48:32.636Z,5.06
2023-01-25T08:49:32.621Z,5.02
2023-01-25T08:50:32.628Z,5.08
2023-01-25T08:51:32.626Z,4.97
2023-01-25T08:52:32.559Z,4.86
2023-01-25T08:53:32.553Z,4.87
2023-01-25T08:54:32.525Z,4.77
2023-01-25T08:55:32.511Z,4.72
2023-01-25T08:56:32.503Z,4.71
2023-01-25T08:57:32.500Z,4.75
2023-01-25T08:58:32.456Z,4.86
2023-01-25T08:59:32.443Z,4.87
2023-01-25T09:00:32.424Z,4.83
2023-01-25T09:01:32.454Z,4.75
2023-01-25T09:02:32.389Z,4.62
2023-01-25T09:03:32.463Z,4.74
2023-01-25T09:04:32.363Z,4.75
2023-01-25T09:05:32.333Z,4.71
2023-01-25T09:06:32.317Z,4.79
2023-01-25T09:07:32.299Z,4.84
2023-01-25T09:08:32.278Z,4.84
2023-01-25T09:09:32.267Z,4.93
2023-01-25T09:10:32.242Z,5.08
2023-01-25T09:11:32.239Z,5.05
2023-01-25T09:12:32.205Z,5.08
2023-01-25T09:13:32.212Z,5.05
2023-01-25T09:14:32.229Z,5.08
2023-01-25T09:15:32.156Z,4.91
2023-01-25T09:16:32.134Z,5.02
2023-01-25T09:17:32.125Z,4.99
2023-01-25T09:18:32.099Z,4.87
2023-01-25T09:19:32.084Z,4.93
2023-01-25T09:20:34.311Z,5.01
2023-01-25T09:21:32.059Z,5.09
2023-01-25T09:22:32.052Z,5.11
2023-01-25T09:23:33.298Z,5.12
2023-01-25T09:24:32.814Z,5.11
2023-01-25T09:25:31.986Z,5.05
2023-01-25T09:26:32.402Z,5.08
2023-01-25T09:27:31.962Z,5.05
2023-01-25T09:28:31.925Z,4.84
2023-01-25T09:29:31.944Z,4.80
2023-01-25T09:30:45.571Z,4.83
2023-01-25T09:31:32.078Z,4.69
2023-01-25T09:32:31.964Z,4.57
2023-01-25T09:33:31.837Z,4.53
2023-01-25T09:34:31.833Z,4.43
2023-01-25T09:35:31.811Z,4.36
2023-01-25T09:36:31.793Z,4.29
2023-01-25T09:37:31.768Z,4.47
2023-01-25T09:38:31.746Z,4.47
2023-01-25T09:39:31.781Z,4.50
2023-01-25T09:40:31.709Z,4.56
2023-01-25T09:41:31.695Z,4.56
2023-01-25T09:42:31.683Z,4.44
2023-01-25T09:43:31.661Z,4.56
2023-01-25T09:44:31.638Z,4.59
2023-01-25T09:45:31.683Z,4.69
2023-01-25T09:46:31.671Z,4.65
2023-01-25T09:47:31.589Z,4.49
2023-01-25T09:48:31.568Z,4.51
2023-01-25T09:49:31.553Z,4.42
2023-01-25T09:50:31.543Z,4.32
2023-01-25T09:51:31.521Z,4.28
2023-01-25T09:52:31.498Z,4.24
2023-01-25T09:53:31.483Z,4.17
2023-01-25T09:54:33.761Z,4.17
2023-01-25T09:55:31.465Z,4.16
2023-01-25T09:56:31.438Z,4.21
2023-01-25T09:57:31.412Z,4.17
2023-01-25T09:58:31.399Z,4.11
2023-01-25T09:59:31.379Z,4.11
2023-01-25T10:00:31.356Z,4.08
2023-01-25T10:01:38.449Z,4.00
2023-01-25T10:02:31.427Z,4.02
2023-01-25T10:03:31.302Z,3.99
2023-01-25T10:04:31.286Z,4.02
2023-01-25T10:05:31.265Z,3.93
2023-01-25T10:06:31.248Z,3.92
2023-01-25T10:07:31.233Z,3.93
2023-01-25T10:08:31.232Z,3.93
2023-01-25T10:09:31.196Z,3.82
2023-01-25T10:10:31.192Z,3.88
2023-01-25T10:11:31.157Z,3.98
2023-01-25T10:12:31.151Z,3.98
2023-01-25T10:13:31.120Z,4.07
2023-01-25T10:14:31.105Z,4.10
2023-01-25T10:15:31.084Z,4.16
2023-01-25T10:16:32.085Z,4.24
2023-01-25T10:17:31.072Z,4.24
2023-01-25T10:18:31.036Z,4.20
2023-01-25T10:19:31.012Z,4.24
2023-01-25T10:20:30.996Z,4.14
2023-01-25T10:21:30.975Z,4.11
2023-01-25T10:22:30.964Z,4.16
2023-01-25T10:23:30.946Z,4.13
2023-01-25T10:24:30.926Z,4.20
2023-01-25T10:25:30.916Z,4.17
2023-01-25T10:26:30.890Z,4.24
2023-01-25T10:27:30.866Z,4.24
2023-01-25T10:28:30.867Z,4.17
2023-01-25T10:29:30.837Z,4.21
2023-01-25T10:30:30.815Z,4.20
2023-01-25T10:31:30.987Z,4.18
2023-01-25T10:32:30.779Z,4.34
2023-01-25T10:33:30.784Z,4.35
2023-01-25T10:34:30.743Z,4.34
2023-01-25T10:35:35.824Z,4.31
2023-01-25T10:36:30.765Z,4.36
2023-01-25T10:37:30.689Z,4.32
2023-01-25T10:38:30.676Z,4.21
2023-01-25T10:39:30.657Z,4.17
2023-01-25T10:40:30.640Z,4.13
2023-01-25T10:41:30.613Z,4.24
2023-01-25T10:42:30.598Z,4.24
2023-01-25T10:43:30.579Z,4.21
2023-01-25T10:44:30.574Z,4.28
2023-01-25T10:45:30.540Z,4.25
2023-01-25T10:46:30.540Z,4.25
2023-01-25T10:47:30.513Z,4.36
2023-01-25T10:48:30.491Z,4.49
2023-01-25T10:49:30.499Z,4.47
2023-01-25T10:50:30.452Z,4.49
2023-01-25T10:51:30.436Z,4.53
2023-01-25T10:52:30.419Z,4.56
2023-01-25T10:53:30.396Z,4.71
2023-01-25T10:54:30.381Z,4.71
2023-01-25T10:55:30.365Z,4.71
2023-01-25T10:56:30.350Z,4.77
2023-01-25T10:57:30.325Z,4.71
2023-01-25T10:58:30.316Z,4.80
2023-01-25T10:59:30.289Z,4.68
2023-01-25T11:00:30.865Z,4.68
2023-01-25T11:01:30.293Z,4.62
2023-01-25T11:02:30.284Z,4.61
2023-01-25T11:03:30.224Z,4.56
2023-01-25T11:04:30.270Z,4.56
2023-01-25T11:05:30.470Z,4.47
2023-01-25T11:06:30.168Z,4.49
2023-01-25T11:07:30.147Z,4.57
2023-01-25T11:08:30.137Z,4.64
2023-01-25T11:09:30.111Z,4.65
2023-01-25T11:10:30.097Z,4.64
2023-01-25T11:11:30.091Z,4.65
2023-01-25T11:12:30.060Z,4.67
2023-01-25T11:13:30.050Z,4.59
2023-01-25T11:14:30.030Z,4.74
2023-01-25T11:15:30.013Z,4.67
2023-01-25T11:16:29.991Z,4.68
2023-01-25T11:17:29.975Z,4.75
2023-01-25T11:18:29.954Z,4.62
2023-01-25T11:19:29.932Z,4.67
2023-01-25T11:20:29.918Z,4.79
2023-01-25T11:21:29.922Z,4.71
2023-01-25T11:22:29.881Z,4.77
2023-01-25T11:23:29.863Z,4.69
2023-01-25T11:24:29.845Z,4.80
2023-01-25T11:25:29.829Z,4.68
2023-01-25T11:26:29.809Z,4.69
2023-01-25T11:27:29.798Z,4.71
2023-01-25T11:28:29.775Z,4.61
2023-01-25T11:29:29.754Z,4.51
2023-01-25T11:30:29.743Z,4.54
2023-01-25T11:31:29.776Z,4.54
2023-01-25T11:32:29.703Z,4.51
2023-01-25T11:33:29.684Z,4.46
2023-01-25T11:34:29.679Z,4.47
2023-01-25T11:35:29.648Z,4.46
2023-01-25T11:36:29.644Z,4.47
2023-01-25T11:37:29.630Z,4.49
2023-01-25T11:38:29.605Z,4.46
2023-01-25T11:39:29.581Z,4.57
2023-01-25T11:40:29.563Z,4.62
2023-01-25T11:41:29.540Z,4.64
2023-01-25T11:42:29.523Z,4.61
2023-01-25T11:43:29.509Z,4.56
2023-01-25T11:44:29.492Z,4.57
2023-01-25T11:45:29.473Z,4.50
2023-01-25T11:46:29.525Z,4.46
2023-01-25T11:47:29.433Z,4.50
2023-01-25T11:48:29.419Z,4.46
2023-01-25T11:49:29.398Z,4.46
2023-01-25T11:50:29.383Z,4.53
2023-01-25T11:51:29.368Z,4.62
2023-01-25T11:52:29.356Z,4.50
2023-01-25T11:53:29.347Z,4.46
2023-01-25T11:54:29.481Z,4.42
2023-01-25T11:55:29.311Z,4.49
2023-01-25T11:56:29.276Z,4.51
2023-01-25T11:57:29.262Z,4.61
2023-01-25T11:58:29.269Z,4.72
2023-01-25T11:59:29.223Z,4.69
2023-01-25T12:00:29.210Z,4.68
2023-01-25T12:01:29.183Z,4.61
2023-01-25T12:02:29.194Z,4.54
2023-01-25T12:03:29.151Z,4.57
2023-01-25T12:04:29.138Z,4.57
2023-01-25T12:05:29.111Z,4.59
2023-01-25T12:06:29.097Z,4.51
2023-01-25T12:07:29.129Z,4.54
2023-01-25T12:08:30.953Z,4.62
2023-01-25T12:09:29.076Z,4.74
2023-01-25T12:10:29.032Z,4.68
2023-01-25T12:11:29.008Z,4.57
2023-01-25T12:12:28.994Z,4.51
2023-01-25T12:13:28.972Z,4.43
2023-01-25T12:14:28.963Z,4.43
2023-01-25T12:15:28.985Z,4.50
2023-01-25T12:16:29.001Z,4.50
2023-01-25T12:17:28.896Z,4.46
2023-01-25T12:18:28.886Z,4.42
2023-01-25T12:19:28.864Z,4.44
2023-01-25T12:20:28.898Z,4.39
2023-01-25T12:21:31.892Z,4.44
2023-01-25T12:22:28.812Z,4.50
2023-01-25T12:23:28.791Z,4.54
2023-01-25T12:24:28.776Z,4.54
2023-01-25T12:25:28.795Z,4.54
2023-01-25T12:26:28.741Z,4.57
2023-01-25T12:27:28.719Z,4.56
2023-01-25T12:28:28.710Z,4.56
2023-01-25T12:29:28.689Z,4.44
2023-01-25T12:30:28.668Z,4.50
2023-01-25T12:31:28.682Z,4.53
2023-01-25T12:32:28.633Z,4.53
2023-01-25T12:33:28.618Z,4.53
2023-01-25T12:34:28.601Z,4.44
2023-01-25T12:35:28.576Z,4.36
2023-01-25T12:36:28.564Z,4.34
2023-01-25T12:37:28.540Z,4.34
2023-01-25T12:38:28.528Z,4.28
2023-01-25T12:39:28.505Z,4.20
2023-01-25T12:40:28.492Z,4.28
2023-01-25T12:41:28.497Z,4.18
2023-01-25T12:42:28.456Z,4.34
2023-01-25T12:43:28.433Z,4.34
2023-01-25T12:44:28.472Z,4.35
2023-01-25T12:45:28.396Z,4.24
2023-01-25T12:46:28.406Z,4.28
2023-01-25T12:47:28.362Z,4.31
2023-01-25T12:48:28.346Z,4.31
2023-01-25T12:49:28.326Z,4.29
2023-01-25T12:50:28.312Z,4.43
2023-01-25T12:51:28.289Z,4.49
2023-01-25T12:52:28.275Z,4.43
2023-01-25T12:53:28.255Z,4.51
2023-01-25T12:54:28.239Z,4.61
2023-01-25T12:55:28.231Z,4.61
2023-01-25T12:56:28.204Z,4.62
2023-01-25T12:57:28.213Z,4.69
2023-01-25T12:58:37.340Z,4.74
2023-01-25T12:59:28.151Z,4.72
2023-01-25T13:00:28.131Z,4.96
2023-01-25T13:01:28.114Z,4.84
2023-01-25T13:02:28.117Z,4.77
2023-01-25T13:03:28.078Z,4.72
2023-01-25T13:04:28.063Z,4.65
2023-01-25T13:05:28.040Z,4.61
2023-01-25T13:06:28.036Z,4.57
2023-01-25T13:07:28.003Z,4.46
2023-01-25T13:08:32.220Z,4.46
2023-01-25T13:09:27.971Z,4.53
2023-01-25T13:10:27.952Z,4.54
2023-01-25T13:11:27.931Z,4.61
2023-01-25T13:12:27.918Z,4.54
2023-01-25T13:13:27.918Z,4.62
2023-01-25T13:14:27.885Z,4.69
2023-01-25T13:15:27.860Z,4.62
2023-01-25T13:16:27.928Z,4.51
2023-01-25T13:17:27.822Z,4.50
2023-01-25T13:18:27.813Z,4.49